AVA9488 SKBO-SKLT
Flight info
| Callsign | AVA9488 |
|---|---|
| Flight time | 1h 33m |
| Altitude | 37000 |
| Route | BOGUS8A SJE UP530 PABON PABON1A |
| Aircraft | A320/M-SDE3FGHIRWY/LB1 |
Departure
| Time | 2026-05-05 15:18 |
|---|---|
| Airport | El Dorado International Airport (SKBO) |
Arrival
| Time | 2026-05-05 16:52 |
|---|---|
| Airport | Alfredo Vásquez Cobo International Airport (SKLT) |
| Time | Latitude | Longitude | Altitude | Speed | Heading |
|---|---|---|---|---|---|
| 2026-05-05 14:43 | 4.69811 | -74.14561 | 8371 ft | 0 kts | 36° |
| 2026-05-05 15:06 | 4.69801 | -74.14569 | 8373 ft | 4 kts | 36° |
| 2026-05-05 15:06 | 4.69782 | -74.14583 | 8373 ft | 4 kts | 26° |
| 2026-05-05 15:06 | 4.69760 | -74.14585 | 8374 ft | 4 kts | 328° |
| 2026-05-05 15:07 | 4.69740 | -74.14567 | 8373 ft | 4 kts | 308° |
| 2026-05-05 15:07 | 4.69739 | -74.14565 | 8373 ft | 4 kts | 307° |
| 2026-05-05 15:07 | 4.69755 | -74.14587 | 8374 ft | 4 kts | 307° |
| 2026-05-05 15:07 | 4.69772 | -74.14608 | 8374 ft | 4 kts | 307° |
| 2026-05-05 15:08 | 4.69788 | -74.14630 | 8373 ft | 3 kts | 307° |
| 2026-05-05 15:08 | 4.69791 | -74.14634 | 8373 ft | 0 kts | 307° |
| 2026-05-05 15:10 | 4.69793 | -74.14636 | 8373 ft | 1 kts | 307° |
| 2026-05-05 15:11 | 4.69804 | -74.14651 | 8373 ft | 4 kts | 308° |
| 2026-05-05 15:11 | 4.69825 | -74.14678 | 8373 ft | 6 kts | 307° |
| 2026-05-05 15:11 | 4.69858 | -74.14721 | 8373 ft | 10 kts | 308° |
| 2026-05-05 15:11 | 4.69910 | -74.14792 | 8372 ft | 15 kts | 307° |
| 2026-05-05 15:12 | 4.69933 | -74.14885 | 8372 ft | 14 kts | 231° |
| 2026-05-05 15:12 | 4.69861 | -74.14946 | 8373 ft | 13 kts | 235° |
| 2026-05-05 15:12 | 4.69893 | -74.15025 | 8373 ft | 14 kts | 307° |
| 2026-05-05 15:12 | 4.69961 | -74.15116 | 8371 ft | 18 kts | 306° |
| 2026-05-05 15:13 | 4.70036 | -74.15216 | 8373 ft | 18 kts | 307° |
| 2026-05-05 15:13 | 4.70117 | -74.15321 | 8373 ft | 20 kts | 307° |
| 2026-05-05 15:13 | 4.70206 | -74.15439 | 8373 ft | 22 kts | 307° |
| 2026-05-05 15:13 | 4.70299 | -74.15562 | 8373 ft | 22 kts | 308° |
| 2026-05-05 15:14 | 4.70388 | -74.15681 | 8373 ft | 21 kts | 307° |
| 2026-05-05 15:14 | 4.70474 | -74.15792 | 8373 ft | 19 kts | 307° |
| 2026-05-05 15:14 | 4.70550 | -74.15893 | 8373 ft | 18 kts | 307° |
| 2026-05-05 15:14 | 4.70623 | -74.15989 | 8373 ft | 16 kts | 307° |
| 2026-05-05 15:15 | 4.70695 | -74.16086 | 8374 ft | 20 kts | 307° |
| 2026-05-05 15:15 | 4.70793 | -74.16215 | 8373 ft | 25 kts | 307° |
| 2026-05-05 15:15 | 4.70900 | -74.16355 | 8374 ft | 25 kts | 307° |
| 2026-05-05 15:15 | 4.71010 | -74.16501 | 8373 ft | 26 kts | 307° |
| 2026-05-05 15:16 | 4.71119 | -74.16645 | 8373 ft | 26 kts | 308° |
| 2026-05-05 15:16 | 4.71219 | -74.16776 | 8373 ft | 20 kts | 307° |
| 2026-05-05 15:16 | 4.71231 | -74.16869 | 8372 ft | 10 kts | 223° |
| 2026-05-05 15:16 | 4.71223 | -74.16875 | 8373 ft | 0 kts | 217° |
| 2026-05-05 15:17 | 4.71221 | -74.16877 | 8373 ft | 3 kts | 217° |
| 2026-05-05 15:17 | 4.71158 | -74.16898 | 8373 ft | 14 kts | 177° |
| 2026-05-05 15:17 | 4.71056 | -74.16885 | 8373 ft | 15 kts | 171° |
| 2026-05-05 15:17 | 4.70971 | -74.16805 | 8370 ft | 28 kts | 126° |
| 2026-05-05 15:18 | 4.70720 | -74.16474 | 8375 ft | 89 kts | 127° |
| 2026-05-05 15:18 | 4.70239 | -74.15835 | 8373 ft | 139 kts | 127° |
| 2026-05-05 15:18 | 4.69570 | -74.14951 | 8400 ft | 176 kts | 129° |
| 2026-05-05 15:18 | 4.68830 | -74.13976 | 9046 ft | 176 kts | 128° |
| 2026-05-05 15:19 | 4.68087 | -74.12998 | 9619 ft | 177 kts | 127° |
| 2026-05-05 15:19 | 4.67341 | -74.12015 | 10055 ft | 177 kts | 126° |
| 2026-05-05 15:19 | 4.66488 | -74.11131 | 10459 ft | 180 kts | 153° |
| 2026-05-05 15:19 | 4.65284 | -74.10915 | 10854 ft | 184 kts | 188° |
| 2026-05-05 15:20 | 4.64132 | -74.11469 | 11281 ft | 191 kts | 222° |
| 2026-05-05 15:20 | 4.63482 | -74.12654 | 11565 ft | 205 kts | 254° |
| 2026-05-05 15:20 | 4.63155 | -74.14111 | 11694 ft | 223 kts | 254° |
| 2026-05-05 15:20 | 4.62818 | -74.15688 | 11836 ft | 239 kts | 255° |
| 2026-05-05 15:21 | 4.62458 | -74.17376 | 11947 ft | 257 kts | 255° |
| 2026-05-05 15:21 | 4.62066 | -74.19199 | 12096 ft | 276 kts | 256° |
| 2026-05-05 15:21 | 4.61653 | -74.21109 | 12597 ft | 282 kts | 255° |
| 2026-05-05 15:21 | 4.61234 | -74.23045 | 13184 ft | 287 kts | 255° |
| 2026-05-05 15:22 | 4.60804 | -74.25012 | 13755 ft | 291 kts | 255° |
| 2026-05-05 15:22 | 4.60132 | -74.26914 | 14295 ft | 290 kts | 233° |
| 2026-05-05 15:22 | 4.58751 | -74.28325 | 14815 ft | 284 kts | 209° |
| 2026-05-05 15:22 | 4.57086 | -74.29399 | 15319 ft | 286 kts | 208° |
| 2026-05-05 15:23 | 4.55386 | -74.30468 | 15834 ft | 290 kts | 208° |
| 2026-05-05 15:23 | 4.53663 | -74.31546 | 16315 ft | 293 kts | 208° |
| 2026-05-05 15:23 | 4.51920 | -74.32639 | 16804 ft | 297 kts | 209° |
| 2026-05-05 15:23 | 4.50156 | -74.33749 | 17272 ft | 302 kts | 209° |
| 2026-05-05 15:24 | 4.48371 | -74.34880 | 17754 ft | 305 kts | 210° |
| 2026-05-05 15:24 | 4.46564 | -74.36027 | 18139 ft | 311 kts | 210° |
| 2026-05-05 15:24 | 4.44685 | -74.37219 | 18251 ft | 328 kts | 210° |
| 2026-05-05 15:24 | 4.42712 | -74.38471 | 18368 ft | 344 kts | 210° |
| 2026-05-05 15:25 | 4.40646 | -74.39782 | 18492 ft | 359 kts | 210° |
| 2026-05-05 15:25 | 4.38517 | -74.41137 | 18597 ft | 374 kts | 211° |
| 2026-05-05 15:25 | 4.36271 | -74.42548 | 18716 ft | 387 kts | 207° |
| 2026-05-05 15:25 | 4.33748 | -74.43562 | 18854 ft | 395 kts | 191° |
| 2026-05-05 15:26 | 4.31011 | -74.43823 | 19139 ft | 397 kts | 174° |
| 2026-05-05 15:26 | 4.28304 | -74.43306 | 19503 ft | 397 kts | 159° |
| 2026-05-05 15:26 | 4.25853 | -74.42063 | 19900 ft | 396 kts | 142° |
| 2026-05-05 15:26 | 4.24462 | -74.40886 | 20144 ft | 396 kts | 133° |
| 2026-05-05 15:27 | 4.22536 | -74.38899 | 20525 ft | 398 kts | 132° |
| 2026-05-05 15:27 | 4.20608 | -74.36894 | 20913 ft | 401 kts | 132° |
| 2026-05-05 15:27 | 4.18666 | -74.34874 | 21334 ft | 403 kts | 132° |
| 2026-05-05 15:27 | 4.16716 | -74.32847 | 21733 ft | 405 kts | 132° |
| 2026-05-05 15:28 | 4.14753 | -74.30811 | 22105 ft | 408 kts | 132° |
| 2026-05-05 15:28 | 4.12776 | -74.28764 | 22458 ft | 410 kts | 132° |
| 2026-05-05 15:28 | 4.10782 | -74.26702 | 22825 ft | 413 kts | 132° |
| 2026-05-05 15:28 | 4.08777 | -74.24628 | 23185 ft | 414 kts | 132° |
| 2026-05-05 15:29 | 4.06772 | -74.22549 | 23558 ft | 416 kts | 132° |
| 2026-05-05 15:29 | 4.04750 | -74.20453 | 23885 ft | 419 kts | 132° |
| 2026-05-05 15:29 | 4.02717 | -74.18349 | 24168 ft | 421 kts | 132° |
| 2026-05-05 15:29 | 4.00675 | -74.16235 | 24498 ft | 422 kts | 131° |
| 2026-05-05 15:30 | 3.97964 | -74.13430 | 24925 ft | 424 kts | 131° |
| 2026-05-05 15:30 | 3.96574 | -74.11993 | 25122 ft | 425 kts | 132° |
| 2026-05-05 15:30 | 3.94511 | -74.09859 | 25408 ft | 427 kts | 131° |
| 2026-05-05 15:30 | 3.92441 | -74.07714 | 25708 ft | 430 kts | 132° |
| 2026-05-05 15:31 | 3.90362 | -74.05558 | 25959 ft | 431 kts | 132° |
| 2026-05-05 15:31 | 3.88276 | -74.03395 | 26264 ft | 432 kts | 132° |
| 2026-05-05 15:31 | 3.86202 | -74.01247 | 26521 ft | 435 kts | 132° |
| 2026-05-05 15:31 | 3.84096 | -73.99067 | 26780 ft | 437 kts | 132° |
| 2026-05-05 15:32 | 3.81973 | -73.96874 | 27058 ft | 438 kts | 132° |
| 2026-05-05 15:32 | 3.79847 | -73.94680 | 27313 ft | 440 kts | 132° |
| 2026-05-05 15:32 | 3.77712 | -73.92477 | 27546 ft | 442 kts | 132° |
| 2026-05-05 15:32 | 3.75570 | -73.90263 | 27819 ft | 443 kts | 132° |
| 2026-05-05 15:33 | 3.73425 | -73.88043 | 28102 ft | 445 kts | 132° |
| 2026-05-05 15:33 | 3.71266 | -73.85809 | 28378 ft | 447 kts | 132° |
| 2026-05-05 15:33 | 3.69103 | -73.83572 | 28643 ft | 448 kts | 132° |
| 2026-05-05 15:33 | 3.66927 | -73.81321 | 28899 ft | 450 kts | 132° |
| 2026-05-05 15:34 | 3.64748 | -73.79070 | 29105 ft | 451 kts | 132° |
| 2026-05-05 15:34 | 3.62559 | -73.76809 | 29357 ft | 452 kts | 132° |
| 2026-05-05 15:34 | 3.60367 | -73.74541 | 29586 ft | 454 kts | 132° |
| 2026-05-05 15:34 | 3.58170 | -73.72269 | 29823 ft | 455 kts | 132° |
| 2026-05-05 15:35 | 3.55960 | -73.69985 | 30051 ft | 457 kts | 132° |
| 2026-05-05 15:35 | 3.53745 | -73.67696 | 30253 ft | 458 kts | 132° |
| 2026-05-05 15:35 | 3.51525 | -73.65404 | 30445 ft | 460 kts | 132° |
| 2026-05-05 15:35 | 3.49297 | -73.63104 | 30620 ft | 461 kts | 132° |
| 2026-05-05 15:36 | 3.47059 | -73.60794 | 30863 ft | 461 kts | 132° |
| 2026-05-05 15:36 | 3.44830 | -73.58491 | 31151 ft | 460 kts | 132° |
| 2026-05-05 15:36 | 3.42634 | -73.56220 | 31422 ft | 459 kts | 132° |
| 2026-05-05 15:36 | 3.40416 | -73.53925 | 31691 ft | 459 kts | 132° |
| 2026-05-05 15:37 | 3.38195 | -73.51627 | 31968 ft | 458 kts | 132° |
| 2026-05-05 15:37 | 3.35978 | -73.49335 | 32231 ft | 458 kts | 132° |
| 2026-05-05 15:37 | 3.33764 | -73.47049 | 32510 ft | 457 kts | 132° |
| 2026-05-05 15:37 | 3.31553 | -73.44766 | 32783 ft | 457 kts | 132° |
| 2026-05-05 15:38 | 3.29337 | -73.42481 | 33055 ft | 456 kts | 132° |
| 2026-05-05 15:38 | 3.27129 | -73.40202 | 33333 ft | 456 kts | 132° |
| 2026-05-05 15:38 | 3.24924 | -73.37924 | 33611 ft | 455 kts | 132° |
| 2026-05-05 15:38 | 3.22721 | -73.35645 | 33889 ft | 455 kts | 131° |
| 2026-05-05 15:39 | 3.20522 | -73.33370 | 34155 ft | 454 kts | 131° |
| 2026-05-05 15:39 | 3.18328 | -73.31103 | 34400 ft | 453 kts | 132° |
| 2026-05-05 15:39 | 3.16133 | -73.28842 | 34638 ft | 453 kts | 132° |
| 2026-05-05 15:39 | 3.13936 | -73.26583 | 34886 ft | 452 kts | 132° |
| 2026-05-05 15:40 | 3.11747 | -73.24328 | 35130 ft | 452 kts | 132° |
| 2026-05-05 15:40 | 3.09562 | -73.22073 | 35343 ft | 451 kts | 132° |
| 2026-05-05 15:40 | 3.07381 | -73.19820 | 35570 ft | 450 kts | 132° |
| 2026-05-05 15:40 | 3.05205 | -73.17569 | 35785 ft | 450 kts | 132° |
| 2026-05-05 15:41 | 3.03030 | -73.15318 | 35979 ft | 449 kts | 132° |
| 2026-05-05 15:41 | 3.00855 | -73.13070 | 36190 ft | 449 kts | 132° |
| 2026-05-05 15:41 | 2.98710 | -73.10854 | 36389 ft | 449 kts | 132° |
| 2026-05-05 15:41 | 2.96541 | -73.08614 | 36584 ft | 448 kts | 132° |
| 2026-05-05 15:42 | 2.94373 | -73.06376 | 36768 ft | 448 kts | 132° |
| 2026-05-05 15:42 | 2.92204 | -73.04142 | 36948 ft | 448 kts | 132° |
| 2026-05-05 15:42 | 2.90035 | -73.01910 | 37013 ft | 447 kts | 133° |
| 2026-05-05 15:43 | 2.85709 | -72.97456 | 37020 ft | 446 kts | 132° |
| 2026-05-05 15:43 | 2.81397 | -72.93000 | 37020 ft | 445 kts | 132° |
| 2026-05-05 15:44 | 2.77094 | -72.88549 | 37033 ft | 445 kts | 132° |
| 2026-05-05 15:44 | 2.72786 | -72.84103 | 37041 ft | 445 kts | 132° |
| 2026-05-05 15:45 | 2.68475 | -72.79664 | 37042 ft | 445 kts | 132° |
| 2026-05-05 15:45 | 2.64155 | -72.75214 | 37053 ft | 445 kts | 132° |
| 2026-05-05 15:46 | 2.59837 | -72.70767 | 37060 ft | 445 kts | 132° |
| 2026-05-05 15:46 | 2.55552 | -72.66347 | 37067 ft | 446 kts | 132° |
| 2026-05-05 15:47 | 2.50713 | -72.62472 | 37067 ft | 449 kts | 148° |
| 2026-05-05 15:47 | 2.45320 | -72.59303 | 37066 ft | 449 kts | 147° |
| 2026-05-05 15:48 | 2.39939 | -72.56114 | 37052 ft | 450 kts | 147° |
| 2026-05-05 15:48 | 2.34548 | -72.52922 | 37048 ft | 450 kts | 147° |
| 2026-05-05 15:49 | 2.29154 | -72.49728 | 37043 ft | 450 kts | 147° |
| 2026-05-05 15:49 | 2.23759 | -72.46538 | 37049 ft | 450 kts | 147° |
| 2026-05-05 15:50 | 2.18398 | -72.43374 | 37037 ft | 450 kts | 147° |
| 2026-05-05 15:50 | 2.13000 | -72.40185 | 37044 ft | 450 kts | 147° |
| 2026-05-05 15:51 | 2.07606 | -72.36996 | 37051 ft | 450 kts | 147° |
| 2026-05-05 15:51 | 2.02215 | -72.33817 | 37046 ft | 450 kts | 147° |
| 2026-05-05 15:52 | 1.96824 | -72.30635 | 37048 ft | 449 kts | 147° |
| 2026-05-05 15:52 | 1.91448 | -72.27450 | 37046 ft | 449 kts | 147° |
| 2026-05-05 15:53 | 1.86101 | -72.24296 | 37048 ft | 449 kts | 147° |
| 2026-05-05 15:53 | 1.80724 | -72.21121 | 37042 ft | 448 kts | 148° |
| 2026-05-05 15:54 | 1.75345 | -72.17945 | 37048 ft | 448 kts | 148° |
| 2026-05-05 15:54 | 1.69983 | -72.14777 | 37052 ft | 447 kts | 147° |
| 2026-05-05 15:55 | 1.64631 | -72.11609 | 37053 ft | 447 kts | 147° |
| 2026-05-05 15:55 | 1.59279 | -72.08447 | 37049 ft | 447 kts | 148° |
| 2026-05-05 15:56 | 1.53914 | -72.05286 | 37052 ft | 447 kts | 148° |
| 2026-05-05 15:56 | 1.48553 | -72.02126 | 37049 ft | 447 kts | 148° |
| 2026-05-05 15:57 | 1.43227 | -71.98981 | 37050 ft | 448 kts | 148° |
| 2026-05-05 15:57 | 1.37860 | -71.95806 | 37052 ft | 448 kts | 148° |
| 2026-05-05 15:58 | 1.32326 | -71.92917 | 37047 ft | 449 kts | 153° |
| 2026-05-05 15:58 | 1.26669 | -71.90250 | 37052 ft | 449 kts | 153° |
| 2026-05-05 15:59 | 1.21016 | -71.87580 | 37054 ft | 450 kts | 153° |
| 2026-05-05 15:59 | 1.15358 | -71.84905 | 37050 ft | 450 kts | 153° |
| 2026-05-05 16:00 | 1.09698 | -71.82229 | 37052 ft | 450 kts | 153° |
| 2026-05-05 16:00 | 1.04030 | -71.79545 | 37055 ft | 450 kts | 153° |
| 2026-05-05 16:01 | 0.98408 | -71.76884 | 37054 ft | 450 kts | 153° |
| 2026-05-05 16:01 | 0.92750 | -71.74207 | 37047 ft | 450 kts | 153° |
| 2026-05-05 16:02 | 0.87091 | -71.71539 | 37046 ft | 450 kts | 153° |
| 2026-05-05 16:02 | 0.81439 | -71.68866 | 37046 ft | 449 kts | 153° |
| 2026-05-05 16:03 | 0.75785 | -71.66192 | 37044 ft | 449 kts | 153° |
| 2026-05-05 16:03 | 0.70124 | -71.63510 | 37041 ft | 449 kts | 153° |
| 2026-05-05 16:04 | 0.64466 | -71.60837 | 37043 ft | 450 kts | 153° |
| 2026-05-05 16:04 | 0.58812 | -71.58163 | 37040 ft | 450 kts | 153° |
| 2026-05-05 16:05 | 0.53147 | -71.55496 | 37045 ft | 450 kts | 153° |
| 2026-05-05 16:05 | 0.47494 | -71.52825 | 37050 ft | 449 kts | 153° |
| 2026-05-05 16:06 | 0.41841 | -71.50148 | 37056 ft | 449 kts | 153° |
| 2026-05-05 16:06 | 0.36236 | -71.47494 | 37047 ft | 448 kts | 153° |
| 2026-05-05 16:07 | 0.30598 | -71.44829 | 37050 ft | 448 kts | 153° |
| 2026-05-05 16:07 | 0.24962 | -71.42176 | 37048 ft | 448 kts | 153° |
| 2026-05-05 16:08 | 0.19330 | -71.39515 | 37046 ft | 447 kts | 153° |
| 2026-05-05 16:08 | 0.13709 | -71.36852 | 37047 ft | 447 kts | 153° |
| 2026-05-05 16:09 | 0.08079 | -71.34189 | 37052 ft | 447 kts | 153° |
| 2026-05-05 16:09 | 0.02447 | -71.31533 | 37045 ft | 447 kts | 153° |
| 2026-05-05 16:10 | -0.03178 | -71.28875 | 37039 ft | 447 kts | 153° |
| 2026-05-05 16:10 | -0.08803 | -71.26210 | 37048 ft | 447 kts | 153° |
| 2026-05-05 16:11 | -0.14431 | -71.23548 | 37049 ft | 447 kts | 153° |
| 2026-05-05 16:12 | -0.25665 | -71.18248 | 37047 ft | 448 kts | 153° |
| 2026-05-05 16:13 | -0.39745 | -71.11594 | 37052 ft | 448 kts | 153° |
| 2026-05-05 16:13 | -0.45374 | -71.08932 | 37046 ft | 448 kts | 153° |
| 2026-05-05 16:14 | -0.56613 | -71.03619 | 37049 ft | 447 kts | 153° |
| 2026-05-05 16:15 | -0.66930 | -70.98753 | 37042 ft | 447 kts | 153° |
| 2026-05-05 16:16 | -0.78181 | -70.93433 | 37033 ft | 447 kts | 153° |
| 2026-05-05 16:17 | -0.86609 | -70.89453 | 37027 ft | 447 kts | 153° |
| 2026-05-05 16:18 | -0.95034 | -70.85467 | 37021 ft | 447 kts | 153° |
| 2026-05-05 16:19 | -1.03461 | -70.81485 | 37028 ft | 447 kts | 153° |
| 2026-05-05 16:19 | -1.11868 | -70.77512 | 37027 ft | 447 kts | 153° |
| 2026-05-05 16:20 | -1.23134 | -70.72188 | 37023 ft | 448 kts | 153° |
| 2026-05-05 16:22 | -1.37231 | -70.65535 | 37027 ft | 448 kts | 153° |
| 2026-05-05 16:23 | -1.48484 | -70.60208 | 37043 ft | 449 kts | 153° |
| 2026-05-05 16:23 | -1.56946 | -70.56213 | 37042 ft | 448 kts | 153° |
| 2026-05-05 16:24 | -1.62586 | -70.53545 | 37040 ft | 448 kts | 153° |
| 2026-05-05 16:25 | -1.71025 | -70.49544 | 37042 ft | 447 kts | 153° |
| 2026-05-05 16:25 | -1.79455 | -70.45562 | 37040 ft | 447 kts | 153° |
| 2026-05-05 16:26 | -1.90667 | -70.40263 | 37039 ft | 447 kts | 153° |
| 2026-05-05 16:27 | -1.96288 | -70.37599 | 37041 ft | 447 kts | 152° |
| 2026-05-05 16:27 | -2.01911 | -70.34940 | 37040 ft | 447 kts | 153° |
| 2026-05-05 16:28 | -2.07543 | -70.32275 | 37039 ft | 447 kts | 153° |
| 2026-05-05 16:28 | -2.13172 | -70.29610 | 37040 ft | 447 kts | 153° |
| 2026-05-05 16:29 | -2.18798 | -70.26946 | 37044 ft | 447 kts | 153° |
| 2026-05-05 16:29 | -2.24424 | -70.24283 | 37042 ft | 448 kts | 153° |
| 2026-05-05 16:30 | -2.30061 | -70.21623 | 37040 ft | 448 kts | 153° |
| 2026-05-05 16:30 | -2.35689 | -70.18963 | 37040 ft | 448 kts | 153° |
| 2026-05-05 16:31 | -2.38509 | -70.17628 | 36549 ft | 451 kts | 153° |
| 2026-05-05 16:31 | -2.41377 | -70.16270 | 35458 ft | 461 kts | 153° |
| 2026-05-05 16:31 | -2.44305 | -70.14879 | 34496 ft | 468 kts | 153° |
| 2026-05-05 16:31 | -2.47269 | -70.13469 | 33548 ft | 474 kts | 153° |
| 2026-05-05 16:32 | -2.50243 | -70.12059 | 32781 ft | 473 kts | 153° |
| 2026-05-05 16:32 | -2.53227 | -70.10647 | 31968 ft | 474 kts | 153° |
| 2026-05-05 16:32 | -2.56163 | -70.09258 | 31346 ft | 471 kts | 153° |
| 2026-05-05 16:32 | -2.59152 | -70.07845 | 30737 ft | 467 kts | 153° |
| 2026-05-05 16:33 | -2.62083 | -70.06460 | 30137 ft | 464 kts | 153° |
| 2026-05-05 16:33 | -2.64988 | -70.05087 | 29481 ft | 460 kts | 153° |
| 2026-05-05 16:33 | -2.67823 | -70.03748 | 28910 ft | 454 kts | 153° |
| 2026-05-05 16:33 | -2.70661 | -70.02404 | 28334 ft | 449 kts | 152° |
| 2026-05-05 16:34 | -2.73364 | -70.00880 | 27759 ft | 443 kts | 147° |
| 2026-05-05 16:34 | -2.76003 | -69.99321 | 27184 ft | 438 kts | 147° |
| 2026-05-05 16:34 | -2.78620 | -69.97781 | 26648 ft | 434 kts | 147° |
| 2026-05-05 16:34 | -2.81216 | -69.96260 | 26106 ft | 430 kts | 147° |
| 2026-05-05 16:35 | -2.83783 | -69.94756 | 25593 ft | 426 kts | 147° |
| 2026-05-05 16:35 | -2.86329 | -69.93263 | 25081 ft | 422 kts | 147° |
| 2026-05-05 16:35 | -2.88853 | -69.91782 | 24576 ft | 418 kts | 147° |
| 2026-05-05 16:35 | -2.91351 | -69.90315 | 24085 ft | 414 kts | 147° |
| 2026-05-05 16:36 | -2.93827 | -69.88860 | 23590 ft | 411 kts | 147° |
| 2026-05-05 16:36 | -2.96278 | -69.87419 | 23042 ft | 407 kts | 147° |
| 2026-05-05 16:36 | -2.98706 | -69.85991 | 22554 ft | 402 kts | 147° |
| 2026-05-05 16:36 | -3.01140 | -69.84640 | 22074 ft | 399 kts | 153° |
| 2026-05-05 16:37 | -3.03760 | -69.83743 | 21578 ft | 399 kts | 165° |
| 2026-05-05 16:37 | -3.06507 | -69.83362 | 21088 ft | 398 kts | 173° |
| 2026-05-05 16:37 | -3.09254 | -69.83114 | 20586 ft | 396 kts | 173° |
| 2026-05-05 16:37 | -3.11991 | -69.82864 | 20087 ft | 394 kts | 173° |
| 2026-05-05 16:38 | -3.14719 | -69.82613 | 19583 ft | 393 kts | 173° |
| 2026-05-05 16:38 | -3.17443 | -69.82359 | 19082 ft | 392 kts | 173° |
| 2026-05-05 16:38 | -3.20156 | -69.82104 | 18585 ft | 391 kts | 173° |
| 2026-05-05 16:38 | -3.22865 | -69.81850 | 18053 ft | 390 kts | 173° |
| 2026-05-05 16:39 | -3.25563 | -69.81598 | 17545 ft | 388 kts | 173° |
| 2026-05-05 16:39 | -3.28202 | -69.81351 | 17065 ft | 385 kts | 173° |
| 2026-05-05 16:39 | -3.30867 | -69.81106 | 16589 ft | 383 kts | 173° |
| 2026-05-05 16:39 | -3.33517 | -69.80863 | 16021 ft | 383 kts | 173° |
| 2026-05-05 16:40 | -3.36150 | -69.80621 | 15686 ft | 377 kts | 173° |
| 2026-05-05 16:40 | -3.38756 | -69.80381 | 15223 ft | 375 kts | 173° |
| 2026-05-05 16:40 | -3.41348 | -69.80141 | 14756 ft | 373 kts | 173° |
| 2026-05-05 16:40 | -3.43919 | -69.79905 | 14329 ft | 371 kts | 173° |
| 2026-05-05 16:41 | -3.46484 | -69.79667 | 14028 ft | 367 kts | 173° |
| 2026-05-05 16:41 | -3.49028 | -69.79636 | 13587 ft | 366 kts | 185° |
| 2026-05-05 16:41 | -3.51552 | -69.80011 | 13152 ft | 365 kts | 187° |
| 2026-05-05 16:41 | -3.54051 | -69.80403 | 12744 ft | 363 kts | 187° |
| 2026-05-05 16:42 | -3.56534 | -69.80789 | 12320 ft | 360 kts | 187° |
| 2026-05-05 16:42 | -3.59006 | -69.81169 | 11931 ft | 358 kts | 187° |
| 2026-05-05 16:42 | -3.61460 | -69.81547 | 11491 ft | 356 kts | 187° |
| 2026-05-05 16:42 | -3.63902 | -69.81926 | 11046 ft | 354 kts | 187° |
| 2026-05-05 16:43 | -3.66313 | -69.82303 | 10819 ft | 345 kts | 187° |
| 2026-05-05 16:43 | -3.68644 | -69.82669 | 10705 ft | 333 kts | 187° |
| 2026-05-05 16:43 | -3.70870 | -69.83015 | 10580 ft | 320 kts | 187° |
| 2026-05-05 16:43 | -3.73023 | -69.83351 | 10199 ft | 308 kts | 187° |
| 2026-05-05 16:44 | -3.75123 | -69.83676 | 9615 ft | 303 kts | 187° |
| 2026-05-05 16:44 | -3.77200 | -69.83997 | 8972 ft | 300 kts | 187° |
| 2026-05-05 16:44 | -3.79256 | -69.84315 | 8334 ft | 297 kts | 187° |
| 2026-05-05 16:44 | -3.81282 | -69.84630 | 7840 ft | 291 kts | 187° |
| 2026-05-05 16:45 | -3.83282 | -69.84942 | 7445 ft | 290 kts | 187° |
| 2026-05-05 16:45 | -3.85256 | -69.85248 | 7054 ft | 282 kts | 187° |
| 2026-05-05 16:45 | -3.87157 | -69.85542 | 6680 ft | 272 kts | 187° |
| 2026-05-05 16:45 | -3.88997 | -69.85827 | 6312 ft | 263 kts | 187° |
| 2026-05-05 16:46 | -3.90772 | -69.86103 | 5946 ft | 254 kts | 187° |
| 2026-05-05 16:46 | -3.92492 | -69.86372 | 5609 ft | 246 kts | 188° |
| 2026-05-05 16:46 | -3.94172 | -69.86635 | 5281 ft | 242 kts | 188° |
| 2026-05-05 16:46 | -3.95817 | -69.86891 | 4955 ft | 236 kts | 188° |
| 2026-05-05 16:47 | -3.97422 | -69.87139 | 4632 ft | 230 kts | 188° |
| 2026-05-05 16:47 | -3.98983 | -69.87380 | 4320 ft | 224 kts | 188° |
| 2026-05-05 16:47 | -4.00504 | -69.87614 | 4019 ft | 219 kts | 187° |
| 2026-05-05 16:47 | -4.01992 | -69.87845 | 3724 ft | 214 kts | 188° |
| 2026-05-05 16:48 | -4.03404 | -69.88218 | 3447 ft | 213 kts | 201° |
| 2026-05-05 16:48 | -4.04799 | -69.88755 | 3167 ft | 214 kts | 201° |
| 2026-05-05 16:48 | -4.06158 | -69.89274 | 2875 ft | 204 kts | 201° |
| 2026-05-05 16:48 | -4.07455 | -69.89767 | 2588 ft | 195 kts | 201° |
| 2026-05-05 16:49 | -4.08693 | -69.90238 | 2337 ft | 185 kts | 201° |
| 2026-05-05 16:49 | -4.09837 | -69.90670 | 2092 ft | 167 kts | 200° |
| 2026-05-05 16:49 | -4.10883 | -69.91066 | 1867 ft | 155 kts | 200° |
| 2026-05-05 16:49 | -4.11875 | -69.91443 | 1660 ft | 151 kts | 200° |
| 2026-05-05 16:50 | -4.12851 | -69.91812 | 1457 ft | 149 kts | 201° |
| 2026-05-05 16:50 | -4.13814 | -69.92178 | 1262 ft | 147 kts | 201° |
| 2026-05-05 16:50 | -4.14772 | -69.92543 | 1071 ft | 147 kts | 201° |
| 2026-05-05 16:50 | -4.15733 | -69.92908 | 877 ft | 147 kts | 201° |
| 2026-05-05 16:51 | -4.16686 | -69.93270 | 680 ft | 148 kts | 200° |
| 2026-05-05 16:51 | -4.17650 | -69.93632 | 468 ft | 148 kts | 201° |
| 2026-05-05 16:51 | -4.18613 | -69.94001 | 281 ft | 144 kts | 202° |
| 2026-05-05 16:51 | -4.19373 | -69.94290 | 277 ft | 77 kts | 201° |
| 2026-05-05 16:52 | -4.19696 | -69.94411 | 282 ft | 16 kts | 200° |
| 2026-05-05 16:52 | -4.19736 | -69.94391 | 278 ft | 6 kts | 109° |
| 2026-05-05 16:52 | -4.19742 | -69.94356 | 277 ft | 3 kts | 99° |
| 2026-05-05 16:52 | -4.19745 | -69.94338 | 277 ft | 2 kts | 99° |
| 2026-05-05 16:53 | -4.19747 | -69.94328 | 277 ft | 1 kts | 99° |
| 2026-05-05 16:53 | -4.19748 | -69.94320 | 277 ft | 4 kts | 99° |
| 2026-05-05 16:53 | -4.19718 | -69.94274 | 277 ft | 12 kts | 55° |
| 2026-05-05 16:53 | -4.19729 | -69.94208 | 277 ft | 4 kts | 110° |
| 2026-05-05 16:54 | -4.19732 | -69.94199 | 277 ft | 0 kts | 110° |